Time;durP1;ratioP1;P1;durP2;ratioP2;P2;SDS_P1;SDS_P2;PMS_P1;PMS_P2;Temp;Humidity;BMP_temperature;BMP_pressure;BME280_temperature;BME280_humidity;BME280_pressure;Samples;Min_cycle;Max_cycle;Signal;HPM_P1;HPM_P2
2021/04/28 00:01:30;;;;;;;12.35;6.75;;;11.00;52.40;;;10.02;43.64;97219.63;5104558;28;20445;-78
2021/04/28 00:03:56;;;;;;;14.65;6.28;;;11.00;52.40;;;9.97;44.08;97216.94;5104263;28;20418;-79
2021/04/28 00:06:23;;;;;;;20.33;7.07;;;10.90;52.90;;;9.90;44.40;97213.72;5105097;28;20397;-78
2021/04/28 00:08:49;;;;;;;11.23;6.38;;;10.80;53.00;;;9.80;43.77;97211.75;5116662;28;20405;-78
2021/04/28 00:11:15;;;;;;;16.85;7.35;;;10.80;52.80;;;9.89;44.09;97212.91;5116434;28;20394;-78
2021/04/28 00:13:41;;;;;;;13.57;7.13;;;10.80;53.00;;;10.05;43.70;97214.66;5112195;28;20842;-79
2021/04/28 00:16:09;;;;;;;10.30;6.45;;;10.90;52.80;;;10.16;43.42;97212.88;5107363;28;20727;-79
2021/04/28 00:18:35;;;;;;;15.45;7.22;;;11.00;52.40;;;10.13;43.42;97216.03;5111573;28;20409;-78
2021/04/28 00:21:02;;;;;;;20.27;6.70;;;11.10;52.50;;;9.78;44.09;97216.50;5115721;28;20405;-78
2021/04/28 00:23:29;;;;;;;14.18;6.75;;;10.80;52.80;;;9.83;44.12;97216.56;5106725;28;20428;-79
2021/04/28 00:25:55;;;;;;;15.65;6.55;;;10.70;53.10;;;9.65;45.01;97211.63;5106295;28;20404;-79
2021/04/28 00:28:21;;;;;;;11.18;6.38;;;10.70;53.70;;;9.83;44.13;97213.91;5105919;28;20409;-78
2021/04/28 00:30:47;;;;;;;10.95;6.65;;;10.70;53.30;;;9.68;44.44;97211.94;5106311;28;20406;-79
2021/04/28 00:33:14;;;;;;;12.57;6.13;;;10.70;53.50;;;9.82;44.63;97207.03;5089382;28;20425;-79
2021/04/28 00:35:41;;;;;;;12.90;6.28;;;10.70;53.90;;;9.59;44.93;97200.19;5109183;28;20438;-78
2021/04/28 00:38:07;;;;;;;10.65;6.30;;;10.60;53.70;;;9.60;45.19;97201.00;5088472;28;20475;-79
2021/04/28 00:40:37;;;;;;;11.02;6.03;;;10.60;54.10;;;9.52;45.16;97204.88;5102719;28;20405;-80
2021/04/28 00:43:03;;;;;;;12.07;6.60;;;10.60;54.20;;;9.54;44.66;97207.28;5106122;28;20458;-79
2021/04/28 00:45:33;;;;;;;9.80;5.82;;;10.50;53.70;;;9.65;44.00;97206.31;5107332;28;20431;-79
2021/04/28 00:48:02;;;;;;;9.15;5.55;;;10.60;53.20;;;9.68;44.02;97198.72;5115087;28;20462;-79
2021/04/28 00:50:32;;;;;;;10.38;5.65;;;10.60;53.20;;;9.87;43.81;97193.06;5114052;28;20434;-79
2021/04/28 00:53:00;;;;;;;10.75;6.70;;;10.70;53.00;;;9.84;44.06;97197.00;5095138;28;20469;-79
2021/04/28 00:55:26;;;;;;;12.38;6.60;;;10.80;53.10;;;9.79;43.51;97189.00;5114550;28;20451;-79
2021/04/28 00:57:53;;;;;;;15.47;6.40;;;10.70;52.80;;;9.73;43.54;97186.59;5112552;28;20533;-79
2021/04/28 01:00:21;;;;;;;11.15;6.18;;;10.70;52.50;;;9.79;43.39;97183.72;5113182;28;20398;-79
2021/04/28 01:02:48;;;;;;;10.57;5.73;;;10.70;52.60;;;9.70;44.29;97190.50;5092664;28;20601;-79
2021/04/28 01:05:15;;;;;;;11.70;6.05;;;10.70;53.20;;;9.43;45.23;97190.50;5106123;28;20405;-79
2021/04/28 01:07:44;;;;;;;13.68;6.25;;;10.60;53.80;;;9.46;45.26;97183.94;5084952;28;20405;-79
2021/04/28 01:10:16;;;;;;;9.53;5.97;;;10.40;54.40;;;9.28;44.69;97185.88;5084750;28;20450;-79
2021/04/28 01:12:43;;;;;;;12.18;5.93;;;10.30;54.00;;;9.21;45.24;97176.53;5084532;28;20534;-79
2021/04/28 01:15:14;;;;;;;12.50;5.97;;;10.30;54.20;;;9.20;44.96;97174.94;5101658;28;20757;-79
2021/04/28 01:17:41;;;;;;;12.55;6.00;;;10.20;54.10;;;9.28;44.65;97180.59;5101764;28;20457;-79
2021/04/28 01:20:11;;;;;;;12.60;6.45;;;10.20;53.90;;;9.32;44.50;97172.97;5101377;28;20687;-79
2021/04/28 01:22:39;;;;;;;11.85;6.05;;;10.30;53.90;;;9.28;44.92;97179.78;5100558;28;20457;-79
2021/04/28 01:25:08;;;;;;;11.73;6.07;;;10.20;54.10;;;9.36;44.65;97175.91;5101633;28;20808;-79
2021/04/28 01:27:37;;;;;;;15.40;6.28;;;10.30;53.80;;;9.25;44.11;97172.34;5101360;28;20587;-79
2021/04/28 01:30:05;;;;;;;14.27;6.20;;;10.30;53.20;;;9.29;44.58;97170.81;5100760;28;20541;-79
2021/04/28 01:32:34;;;;;;;9.63;5.50;;;10.30;53.90;;;9.17;44.54;97176.22;5101160;28;20413;-79
2021/04/28 01:35:03;;;;;;;9.70;6.35;;;10.20;53.60;;;9.25;44.87;97173.13;5102378;28;20465;-79
2021/04/28 01:37:31;;;;;;;10.57;5.88;;;10.20;54.00;;;9.31;45.40;97176.66;5103195;28;20954;-79
2021/04/28 01:40:00;;;;;;;13.43;6.63;;;10.30;54.50;;;9.22;45.18;97173.66;5100817;28;20741;-79
2021/04/28 01:42:28;;;;;;;11.30;6.10;;;10.20;54.20;;;9.07;45.70;97176.13;5099993;28;20502;-79
2021/04/28 01:44:55;;;;;;;11.70;6.40;;;10.10;54.60;;;9.06;45.81;97179.00;5100096;28;20417;-79
2021/04/28 01:47:22;;;;;;;10.30;5.70;;;10.00;54.90;;;9.04;46.77;97183.72;5101023;28;20818;-79
2021/04/28 01:49:50;;;;;;;12.05;6.13;;;10.00;55.70;;;8.92;46.80;97186.50;5099845;28;20853;-79
2021/04/28 01:52:18;;;;;;;11.23;6.13;;;10.00;56.00;;;8.77;46.89;97178.38;5100012;28;20446;-79
2021/04/28 01:54:47;;;;;;;11.93;6.40;;;9.80;56.00;;;8.92;45.97;97179.38;5100340;28;20736;-79
2021/04/28 01:57:15;;;;;;;12.73;5.88;;;9.80;55.40;;;9.09;46.36;97181.16;5100646;28;20424;-79
2021/04/28 01:59:42;;;;;;;13.80;6.68;;;10.00;55.90;;;8.98;46.73;97176.78;5100636;28;20490;-79
2021/04/28 02:02:10;;;;;;;10.88;6.07;;;10.00;56.00;;;8.80;47.20;97176.03;5100635;28;20405;-79
2021/04/28 02:04:37;;;;;;;8.80;5.70;;;9.80;56.10;;;8.87;46.68;97168.72;5081428;28;20890;-79
2021/04/28 02:07:05;;;;;;;11.98;6.72;;;9.80;56.00;;;8.98;46.92;97172.31;5100121;28;20463;-79
2021/04/28 02:09:31;;;;;;;9.48;5.97;;;9.90;56.50;;;9.00;46.78;97166.78;5099384;28;20450;-79
2021/04/28 02:11:58;;;;;;;11.18;6.10;;;10.00;56.60;;;8.76;47.35;97169.66;5098379;28;20401;-79
2021/04/28 02:14:26;;;;;;;12.45;6.70;;;9.90;56.50;;;8.71;47.54;97166.16;5099051;28;20474;-79
2021/04/28 02:16:54;;;;;;;11.60;6.25;;;9.70;56.90;;;8.66;48.20;97160.78;5081611;28;20442;-79
2021/04/28 02:19:20;;;;;;;13.75;6.28;;;9.70;57.50;;;8.50;48.57;97162.44;5099508;28;20409;-79
2021/04/28 02:21:50;;;;;;;15.18;6.53;;;9.50;57.90;;;8.51;48.92;97162.19;5099286;28;20447;-79
2021/04/28 02:24:17;;;;;;;10.07;6.40;;;9.50;58.40;;;8.63;48.97;97161.31;5099526;28;20423;-79
2021/04/28 02:26:44;;;;;;;10.55;6.43;;;9.60;58.70;;;8.51;49.26;97156.91;5100254;28;20413;-79
2021/04/28 02:29:12;;;;;;;12.73;6.60;;;9.60;58.70;;;8.60;49.37;97156.50;5082457;28;20608;-79
2021/04/28 02:31:39;;;;;;;13.18;6.72;;;9.60;59.00;;;8.53;49.24;97154.03;5098890;28;20398;-79
2021/04/28 02:34:07;;;;;;;10.75;6.38;;;9.60;58.80;;;8.52;49.08;97158.50;5099286;28;20414;-79
2021/04/28 02:36:37;;;;;;;11.32;6.55;;;9.50;58.70;;;8.58;48.58;97154.09;5098767;28;21042;-79
2021/04/28 02:39:11;;;;;;;14.03;6.77;;;9.60;58.20;;;8.61;48.55;97156.25;5097172;28;20402;-79
2021/04/28 02:41:40;;;;;;;15.95;7.13;;;9.60;58.20;;;8.59;48.47;97155.69;5100256;28;20460;-78
2021/04/28 02:44:09;;;;;;;12.87;7.10;;;9.60;58.00;;;8.66;47.54;97158.97;5101207;28;20802;-79
2021/04/28 02:46:36;;;;;;;14.93;6.95;;;9.70;57.40;;;8.64;47.65;97157.63;5107865;28;20460;-79
2021/04/28 02:49:04;;;;;;;14.80;7.43;;;9.60;57.10;;;8.58;48.14;97155.94;5116144;28;20406;-79
2021/04/28 02:51:31;;;;;;;13.50;7.32;;;9.60;57.60;;;8.40;48.42;97152.56;5115505;28;20444;-78
2021/04/28 02:53:59;;;;;;;16.05;7.47;;;9.50;57.90;;;8.39;48.12;97160.72;5115410;28;20471;-78
2021/04/28 02:56:28;;;;;;;14.07;7.38;;;9.40;57.70;;;8.45;47.76;97149.97;5096940;28;20475;-78
2021/04/28 02:58:55;;;;;;;12.50;7.00;;;9.40;57.50;;;8.53;47.34;97154.03;5112216;28;20481;-79
2021/04/28 03:01:22;;;;;;;17.10;7.10;;;9.50;57.20;;;8.53;47.20;97152.19;5101977;28;20412;-78
2021/04/28 03:03:49;;;;;;;13.20;7.07;;;9.50;56.80;;;8.49;47.59;97148.44;5100958;28;20723;-78
2021/04/28 03:06:16;;;;;;;12.23;7.28;;;9.50;57.20;;;8.41;47.82;97156.00;5101328;28;20410;-79
2021/04/28 03:08:44;;;;;;;14.65;7.55;;;9.50;57.30;;;8.46;47.81;97151.59;5083494;28;20417;-78
2021/04/28 03:11:11;;;;;;;16.33;7.82;;;9.40;57.40;;;8.47;48.05;97145.28;5100514;28;20412;-79
2021/04/28 03:13:37;;;;;;;13.43;7.20;;;9.50;57.70;;;8.50;48.24;97154.50;5100052;28;20413;-78
2021/04/28 03:16:05;;;;;;;16.02;7.25;;;9.50;57.90;;;8.57;47.88;97147.22;5083663;28;20414;-79
2021/04/28 03:18:31;;;;;;;13.88;7.72;;;9.50;57.60;;;8.54;48.24;97148.53;5100762;28;20520;-78
2021/04/28 03:20:59;;;;;;;18.45;6.95;;;9.50;57.90;;;8.34;48.77;97144.81;5101436;28;20752;-78
2021/04/28 03:23:27;;;;;;;19.90;7.75;;;9.50;58.10;;;8.26;48.86;97147.84;5085693;28;20791;-79
2021/04/28 03:25:53;;;;;;;14.32;7.22;;;9.30;58.60;;;8.30;48.74;97141.03;5101162;28;20413;-78
2021/04/28 03:28:19;;;;;;;15.70;7.72;;;9.30;58.40;;;8.31;48.69;97142.66;5100595;28;20433;-78
2021/04/28 03:30:46;;;;;;;14.77;7.20;;;9.30;58.40;;;8.38;48.96;97144.09;5100653;28;20436;-78
2021/04/28 03:33:13;;;;;;;16.20;7.18;;;9.30;58.70;;;8.26;49.31;97146.00;5082944;28;20422;-78
2021/04/28 03:35:39;;;;;;;12.75;7.13;;;9.30;58.80;;;8.18;49.20;97151.69;5101096;28;20413;-78
2021/04/28 03:38:05;;;;;;;13.88;7.28;;;9.20;58.90;;;8.20;49.19;97144.31;5100826;28;20822;-79
2021/04/28 03:40:32;;;;;;;16.25;7.95;;;9.20;59.00;;;8.25;49.02;97143.59;5114428;27;20526;-78
2021/04/28 03:42:59;;;;;;;15.70;7.93;;;9.20;58.90;;;8.14;49.71;97147.91;5114404;27;20680;-78
2021/04/28 03:45:25;;;;;;;12.38;7.50;;;9.20;59.20;;;8.16;49.26;97138.72;5103130;28;20402;-78
2021/04/28 03:47:51;;;;;;;15.63;7.80;;;9.10;59.30;;;8.04;49.76;97142.50;5116065;28;20483;-79
2021/04/28 03:50:17;;;;;;;19.05;8.27;;;9.10;59.40;;;8.03;49.77;97149.59;5104422;28;20402;-80
2021/04/28 03:52:44;;;;;;;19.85;7.53;;;9.10;59.60;;;8.05;49.70;97142.25;5107233;28;20626;-79
2021/04/28 03:55:12;;;;;;;16.17;7.40;;;9.00;60.20;;;8.09;49.55;97151.28;5116929;27;20409;-79
2021/04/28 03:57:40;;;;;;;21.45;8.38;;;9.10;59.50;;;8.15;49.09;97141.59;5106904;28;20516;-77
2021/04/28 04:00:09;;;;;;;18.45;7.65;;;9.20;59.10;;;8.22;48.95;97147.50;5101559;28;20434;-79
2021/04/28 04:02:36;;;;;;;17.13;7.40;;;9.20;59.00;;;8.31;48.64;97153.19;5101081;28;20683;-79
2021/04/28 04:05:02;;;;;;;14.45;7.57;;;9.30;58.70;;;8.28;48.98;97153.66;5100803;28;20414;-79
2021/04/28 04:07:28;;;;;;;18.53;8.13;;;9.30;58.80;;;8.16;49.49;97153.75;5100791;28;20435;-79
2021/04/28 04:09:55;;;;;;;15.63;8.70;;;9.20;59.00;;;8.27;49.38;97152.84;5100327;28;20428;-79
2021/04/28 04:12:21;;;;;;;15.77;8.18;;;9.20;59.30;;;8.23;49.45;97153.56;5100001;28;20402;-79
2021/04/28 04:14:48;;;;;;;18.52;7.63;;;9.20;59.20;;;8.19;49.64;97153.28;5100709;28;20590;-79
2021/04/28 04:17:14;;;;;;;19.27;8.05;;;9.20;59.50;;;8.12;49.93;97166.59;5100446;28;20417;-79
2021/04/28 04:19:40;;;;;;;19.23;8.10;;;9.10;59.70;;;8.12;49.92;97163.16;5099054;28;20699;-79
2021/04/28 04:22:06;;;;;;;15.32;8.38;;;9.10;59.80;;;8.26;49.74;97167.09;5082263;28;20410;-79
2021/04/28 04:24:32;;;;;;;17.75;7.57;;;9.20;59.70;;;8.36;49.58;97166.44;5100505;28;20417;-79
2021/04/28 04:26:59;;;;;;;17.90;8.45;;;9.30;59.50;;;8.42;49.61;97168.16;5099916;28;20800;-80
2021/04/28 04:29:25;;;;;;;14.02;8.23;;;9.40;59.50;;;8.36;49.67;97166.44;5099095;28;20421;-79
2021/04/28 04:31:52;;;;;;;16.08;7.75;;;9.40;59.60;;;8.42;49.77;97168.16;5100178;28;20924;-79
2021/04/28 04:34:19;;;;;;;16.75;8.27;;;9.40;59.60;;;8.51;49.36;97171.94;5101620;28;20425;-85
2021/04/28 04:36:45;;;;;;;21.15;8.23;;;9.40;59.50;;;8.44;49.69;97158.94;5102297;28;20390;-85
2021/04/28 04:39:11;;;;;;;16.38;7.95;;;9.50;59.50;;;8.34;50.22;97168.56;5101997;28;20418;-84
2021/04/28 04:41:38;;;;;;;15.40;8.45;;;9.40;59.80;;;8.34;50.03;97172.00;5100606;28;20819;-85
2021/04/28 04:44:04;;;;;;;16.05;8.30;;;9.30;59.90;;;8.44;49.78;97163.41;5100799;28;20413;-84
2021/04/28 04:46:30;;;;;;;18.30;8.95;;;9.40;59.70;;;8.56;49.24;97165.97;5101752;28;20406;-79
2021/04/28 04:48:57;;;;;;;21.58;8.90;;;9.50;59.40;;;8.50;49.71;97162.44;5101886;28;20410;-80
2021/04/28 04:51:24;;;;;;;21.65;8.23;;;9.50;59.70;;;8.50;49.81;97171.16;5100876;28;20401;-80
2021/04/28 04:53:50;;;;;;;20.13;9.13;;;9.50;59.90;;;8.59;49.60;97163.63;5083066;28;20421;-80
2021/04/28 04:56:16;;;;;;;23.13;9.13;;;9.50;59.70;;;8.59;49.81;97165.47;5083048;28;20425;-79
2021/04/28 04:58:43;;;;;;;19.63;8.05;;;9.50;59.80;;;8.72;49.25;97165.91;5100504;28;20422;-80
2021/04/28 05:01:09;;;;;;;18.53;8.47;;;9.60;59.30;;;8.82;49.09;97173.16;5100818;28;20452;-80
2021/04/28 05:03:35;;;;;;;21.45;9.15;;;9.70;59.20;;;9.00;48.89;97167.59;5102629;28;20475;-80
2021/04/28 05:06:03;;;;;;;26.58;9.93;;;9.90;59.10;;;9.10;48.51;97178.25;5114133;28;20694;-80
2021/04/28 05:08:29;;;;;;;81.65;29.55;;;10.00;58.60;;;9.17;48.27;97170.94;5114805;28;20415;-79
2021/04/28 05:10:55;;;;;;;28.63;9.00;;;10.10;58.30;;;9.12;48.50;97176.16;5115117;28;20471;-80
2021/04/28 05:13:22;;;;;;;24.00;8.65;;;10.00;58.40;;;9.10;48.76;97178.25;5085948;28;20417;-80
2021/04/28 05:15:49;;;;;;;29.25;9.75;;;10.00;58.50;;;9.08;48.80;97177.72;5104128;28;20406;-79
2021/04/28 05:18:15;;;;;;;26.92;9.20;;;10.00;58.70;;;9.11;48.61;97179.84;5105137;28;20424;-80
2021/04/28 05:20:42;;;;;;;27.45;8.88;;;10.00;58.80;;;9.21;48.43;97174.69;5100825;28;20406;-80
2021/04/28 05:23:09;;;;;;;33.67;9.45;;;10.10;58.60;;;9.28;48.28;97175.31;5101440;28;20412;-79
2021/04/28 05:25:36;;;;;;;38.83;10.10;;;10.20;58.40;;;9.31;48.24;97174.00;5101955;28;20630;-79
2021/04/28 05:28:03;;;;;;;31.60;10.32;;;10.20;58.30;;;9.37;48.07;97178.31;5101610;28;20398;-79
2021/04/28 05:30:29;;;;;;;20.92;8.90;;;10.30;58.30;;;9.39;47.91;97181.50;5094522;28;20413;-79
2021/04/28 05:32:55;;;;;;;22.13;9.67;;;10.30;57.90;;;9.40;47.69;97175.16;5092423;28;20728;-80
2021/04/28 05:35:23;;;;;;;23.15;9.25;;;10.30;57.80;;;9.47;47.64;97180.25;5103205;28;20819;-80
2021/04/28 05:37:49;;;;;;;24.98;9.70;;;10.40;57.70;;;9.52;47.46;97175.03;5102228;28;20418;-80
2021/04/28 05:40:18;;;;;;;25.67;9.40;;;10.40;57.50;;;9.61;47.50;97178.81;5103440;28;20470;-79
2021/04/28 05:42:45;;;;;;;27.85;9.05;;;10.50;57.50;;;9.68;47.30;97185.50;5084972;28;20457;-81
2021/04/28 05:45:13;;;;;;;24.48;9.52;;;10.60;57.40;;;9.75;47.02;97176.56;5101635;28;20403;-82
2021/04/28 05:47:40;;;;;;;22.90;9.32;;;10.60;57.20;;;9.85;46.78;97171.38;5103115;28;20439;-80
2021/04/28 05:50:11;;;;;;;26.70;11.05;;;10.70;57.00;;;9.99;46.61;97175.19;5085832;28;20430;-79
2021/04/28 05:52:38;;;;;;;30.52;12.32;;;10.80;56.80;;;10.05;46.59;97179.47;5083673;28;20418;-80
2021/04/28 05:55:09;;;;;;;24.25;10.70;;;10.90;56.50;;;10.09;46.17;97183.19;5085195;28;20482;-79
2021/04/28 05:57:38;;;;;;;26.13;11.90;;;10.90;56.30;;;10.15;46.19;97179.53;5083412;28;20425;-80
2021/04/28 06:00:08;;;;;;;26.90;11.02;;;11.00;56.30;;;10.25;46.16;97177.00;5087147;28;20498;-79
2021/04/28 06:02:34;;;;;;;23.10;9.75;;;11.10;56.10;;;10.32;45.82;97182.88;5074299;28;20398;-79
2021/04/28 06:05:00;;;;;;;19.65;9.30;;;11.20;55.90;;;10.40;45.64;97174.47;5075849;28;20430;-79
2021/04/28 06:07:32;;;;;;;18.27;9.77;;;11.30;55.80;;;10.50;45.47;97176.38;5093419;28;20403;-79
2021/04/28 06:09:58;;;;;;;16.75;8.95;;;11.30;55.50;;;10.61;45.27;97174.59;5089099;28;20415;-79
2021/04/28 06:12:25;;;;;;;24.85;9.63;;;11.40;55.30;;;10.68;44.96;97181.25;5064882;28;20513;-79
2021/04/28 06:14:52;;;;;;;26.40;9.33;;;11.50;55.10;;;10.75;45.03;97171.22;5081339;28;20415;-79
2021/04/28 06:17:18;;;;;;;20.63;9.90;;;11.60;55.10;;;10.81;44.78;97172.06;5088179;28;20416;-79
2021/04/28 06:19:45;;;;;;;21.33;9.85;;;11.70;54.60;;;10.82;44.63;97171.81;5094808;28;20411;-79
2021/04/28 06:22:11;;;;;;;21.00;9.90;;;11.70;54.60;;;10.84;44.65;97172.34;5076507;28;20498;-79
2021/04/28 06:24:37;;;;;;;29.50;11.18;;;11.70;54.60;;;10.81;44.82;97170.22;5083131;28;20473;-79
2021/04/28 06:27:05;;;;;;;17.50;9.63;;;11.70;54.60;;;10.81;44.86;97164.91;5081294;28;20407;-79
2021/04/28 06:29:34;;;;;;;20.07;10.23;;;11.70;54.60;;;10.88;44.70;97161.25;5078846;28;20408;-80
2021/04/28 06:32:09;;;;;;;20.83;10.02;;;11.70;54.60;;;10.99;44.28;97174.25;5079335;28;20498;-79
2021/04/28 06:34:35;;;;;;;20.80;9.95;;;11.80;54.40;;;11.08;44.24;97174.56;5063706;28;20909;-79
2021/04/28 06:37:02;;;;;;;31.17;11.18;;;11.90;54.10;;;11.15;44.54;97173.25;5080333;28;20415;-79
2021/04/28 06:39:28;;;;;;;25.85;11.35;;;12.00;54.50;;;11.22;44.80;97171.16;5082990;28;20514;-78
2021/04/28 06:41:55;;;;;;;27.35;10.65;;;12.00;54.70;;;11.31;44.64;97174.13;5069556;28;20415;-81
2021/04/28 06:44:21;;;;;;;27.02;10.43;;;12.10;54.60;;;11.44;44.10;97167.50;5088301;28;20420;-81
2021/04/28 06:46:48;;;;;;;31.00;11.02;;;12.20;54.00;;;11.63;43.83;97168.63;5082956;28;20705;-80
2021/04/28 06:49:15;;;;;;;28.55;11.70;;;12.40;53.80;;;11.75;43.79;97169.19;5085053;28;20429;-80
2021/04/28 06:51:42;;;;;;;30.35;11.77;;;12.50;53.70;;;11.78;43.72;97168.69;5089245;28;20770;-80
2021/04/28 06:54:11;;;;;;;25.50;10.70;;;12.60;53.50;;;11.82;43.57;97169.75;5088794;28;20415;-80
2021/04/28 06:56:41;;;;;;;37.95;11.45;;;12.60;53.40;;;11.90;43.76;97173.72;5085490;28;20419;-80
2021/04/28 06:59:08;;;;;;;29.58;10.90;;;12.70;53.60;;;12.03;43.25;97167.88;5081512;28;20430;-82
2021/04/28 07:01:35;;;;;;;19.50;10.17;;;12.80;53.30;;;12.12;43.29;97168.16;5063470;28;20490;-81
2021/04/28 07:04:03;;;;;;;31.63;11.55;;;12.90;53.00;;;12.28;42.73;97161.78;5064752;28;20423;-82
2021/04/28 07:06:33;;;;;;;27.60;10.88;;;13.00;52.80;;;12.39;42.82;97161.53;5080882;28;20793;-81
2021/04/28 07:09:00;;;;;;;33.58;12.07;;;13.10;52.60;;;12.38;42.65;97161.78;5063342;28;20426;-81
2021/04/28 07:11:26;;;;;;;23.15;11.60;;;13.10;52.20;;;12.47;42.16;97157.53;5081794;28;20427;-80
2021/04/28 07:13:52;;;;;;;26.77;10.88;;;13.30;52.00;;;12.51;42.11;97157.78;5080504;28;20617;-81
2021/04/28 07:16:19;;;;;;;27.95;12.05;;;13.30;51.80;;;12.57;41.74;97165.47;5064179;28;20403;-80
2021/04/28 07:18:45;;;;;;;25.27;11.30;;;13.30;51.40;;;12.61;41.72;97155.09;5083124;28;20424;-81
2021/04/28 07:21:12;;;;;;;29.08;11.90;;;13.40;51.30;;;12.64;41.73;97159.84;5082399;28;20640;-81
2021/04/28 07:23:41;;;;;;;28.00;12.35;;;13.50;51.30;;;12.71;41.53;97161.16;5082908;28;20439;-81
2021/04/28 07:26:10;;;;;;;30.50;11.95;;;13.50;51.30;;;12.80;41.50;97161.41;5081960;28;20439;-81
2021/04/28 07:28:36;;;;;;;22.35;11.20;;;13.60;51.40;;;12.83;41.59;97160.88;5084243;28;20427;-80
2021/04/28 07:31:06;;;;;;;25.00;11.50;;;13.60;51.10;;;12.95;40.87;97168.53;5086214;28;20449;-81
2021/04/28 07:33:33;;;;;;;26.48;11.82;;;13.70;50.80;;;13.14;41.28;97172.22;5084013;28;20564;-80
2021/04/28 07:36:00;;;;;;;22.90;11.38;;;13.90;50.90;;;13.27;40.62;97168.19;5084133;28;20475;-79
2021/04/28 07:38:29;;;;;;;28.70;11.43;;;14.00;50.30;;;13.31;40.03;97166.56;5084661;28;20415;-79
2021/04/28 07:40:57;;;;;;;27.30;11.57;;;14.10;49.90;;;13.44;40.38;97164.13;5083576;28;20453;-80
2021/04/28 07:43:23;;;;;;;22.98;11.68;;;14.20;50.00;;;13.45;40.55;97167.56;5084846;28;20426;-79
2021/04/28 07:45:50;;;;;;;27.25;14.85;;;14.20;49.90;;;13.53;40.36;97165.09;5082255;28;20427;-79
2021/04/28 07:48:16;;;;;;;28.88;12.90;;;14.30;49.90;;;13.69;40.10;97168.47;5083641;28;20554;-81
2021/04/28 07:50:44;;;;;;;45.17;13.18;;;14.40;49.70;;;13.89;39.84;97168.34;5084015;28;20408;-80
2021/04/28 07:53:12;;;;;;;29.20;12.52;;;14.60;49.50;;;13.93;39.11;97161.38;5082869;28;20431;-81
2021/04/28 07:55:38;;;;;;;26.90;11.70;;;14.60;48.80;;;13.92;39.71;97165.13;5083440;28;20778;-81
2021/04/28 07:58:12;;;;;;;22.83;11.40;;;14.70;49.00;;;13.94;39.39;97168.31;5083540;28;20756;-79
2021/04/28 08:00:38;;;;;;;27.42;12.23;;;14.60;48.70;;;13.86;39.79;97163.56;5088026;28;20395;-79
2021/04/28 08:03:05;;;;;;;26.15;12.63;;;14.60;49.60;;;13.91;39.85;97158.19;5095848;28;20479;-79
2021/04/28 08:05:33;;;;;;;27.98;12.48;;;14.60;49.10;;;13.90;39.84;97161.97;5087910;28;20503;-81
2021/04/28 08:08:09;;;;;;;27.55;12.98;;;14.60;49.20;;;13.92;40.03;97170.44;5082996;28;20404;-79
2021/04/28 08:10:38;;;;;;;28.13;12.00;;;14.60;49.30;;;14.01;40.03;97165.31;5083444;28;20419;-80
2021/04/28 08:13:10;;;;;;;26.55;12.32;;;14.70;49.30;;;14.16;39.97;97167.06;5083289;28;20925;-81
2021/04/28 08:15:38;;;;;;;30.40;12.52;;;14.90;49.30;;;14.26;39.62;97161.66;5083101;28;20416;-81
2021/04/28 08:18:07;;;;;;;31.27;12.70;;;15.00;48.90;;;14.20;39.70;97168.13;5083816;28;20885;-82
2021/04/28 08:20:37;;;;;;;28.77;12.45;;;14.90;48.90;;;14.34;39.64;97163.72;5082766;28;20406;-80
2021/04/28 08:23:09;;;;;;;29.60;13.18;;;15.00;49.10;;;14.56;39.10;97163.28;5083032;28;20419;-81
2021/04/28 08:25:35;;;;;;;31.23;14.27;;;15.30;48.60;;;14.62;39.24;97162.16;5083281;28;20414;-80
2021/04/28 08:28:25;;;;;;;25.65;13.35;;;15.30;48.40;;;14.83;38.89;97155.53;5083387;28;20404;-80
2021/04/28 08:30:52;;;;;;;28.55;13.70;;;15.40;48.40;;;14.99;38.53;97158.81;5082593;28;20415;-81
2021/04/28 08:33:18;;;;;;;28.33;12.48;;;15.60;48.00;;;15.11;38.25;97154.66;5084130;28;20454;-81
2021/04/28 08:35:44;;;;;;;30.67;13.50;;;15.80;47.60;;;15.18;38.32;97157.00;5083418;28;20416;-81
2021/04/28 08:38:17;;;;;;;29.02;13.55;;;15.90;47.50;;;15.16;38.35;97161.03;5085095;28;20423;-81
2021/04/28 08:40:45;;;;;;;27.30;13.05;;;15.90;47.60;;;15.14;38.53;97155.97;5085952;28;20407;-81
2021/04/28 08:43:16;;;;;;;32.28;13.70;;;15.80;47.60;;;15.26;38.44;97150.25;5086362;28;20418;-81
2021/04/28 08:45:42;;;;;;;26.80;13.52;;;16.00;47.90;;;15.35;38.32;97146.63;5085672;28;20428;-82
2021/04/28 08:48:18;;;;;;;33.65;13.73;;;16.10;47.60;;;15.57;38.09;97147.97;5086420;28;20753;-82
2021/04/28 08:50:48;;;;;;;29.35;12.75;;;16.20;47.50;;;15.74;37.81;97145.59;5086710;28;20446;-83
2021/04/28 08:53:16;;;;;;;32.88;13.25;;;16.40;47.00;;;15.82;37.75;97140.38;5088088;28;20445;-82
2021/04/28 08:55:43;;;;;;;28.00;13.57;;;16.50;46.80;;;15.90;37.61;97130.13;5086514;28;20404;-83
2021/04/28 08:58:14;;;;;;;28.65;12.95;;;16.60;46.50;;;16.08;37.46;97129.31;5086851;28;20415;-82
2021/04/28 09:00:44;;;;;;;37.20;13.55;;;16.70;46.50;;;16.25;37.08;97124.19;5084108;28;20403;-83
2021/04/28 09:03:11;;;;;;;24.58;13.35;;;16.90;46.30;;;16.15;36.89;97129.72;5083048;28;20415;-82
2021/04/28 09:05:38;;;;;;;37.80;14.50;;;16.80;45.60;;;16.30;36.49;97129.47;5085839;28;20396;-82
2021/04/28 09:08:11;;;;;;;29.65;14.52;;;16.90;45.60;;;16.36;36.53;97124.84;5087031;28;20705;-80
2021/04/28 09:10:40;;;;;;;30.25;14.05;;;17.00;45.40;;;16.47;36.70;97131.56;5084932;28;20400;-82
2021/04/28 09:13:22;;;;;;;28.98;14.70;;;17.10;45.60;;;16.50;36.05;97125.66;5083441;28;20419;-82
2021/04/28 09:15:50;;;;;;;27.63;13.88;;;17.20;44.80;;;16.61;35.72;97132.44;5081737;28;20416;-82
2021/04/28 09:18:21;;;;;;;44.92;14.95;;;17.30;44.60;;;16.59;35.61;97123.88;5081954;28;20423;-81
2021/04/28 09:20:55;;;;;;;31.15;14.15;;;17.20;44.30;;;16.79;35.16;97120.03;5083310;28;20411;-82
2021/04/28 09:23:31;;;;;;;30.88;13.65;;;17.40;44.00;;;16.94;35.43;97122.41;5084067;28;20582;-83
2021/04/28 09:25:58;;;;;;;30.20;14.80;;;17.50;44.10;;;16.99;34.91;97124.97;5084380;28;20411;-84
2021/04/28 09:28:33;;;;;;;35.40;14.15;;;17.60;43.50;;;17.14;34.36;97122.00;5085990;28;20422;-79
2021/04/28 09:31:15;;;;;;;27.95;13.68;;;17.80;43.00;;;17.23;33.62;97119.41;5085546;28;20408;-81
2021/04/28 09:33:55;;;;;;;25.08;13.15;;;17.80;42.10;;;17.26;33.92;97121.50;5085203;28;20411;-81
2021/04/28 09:36:28;;;;;;;29.08;13.90;;;17.90;42.20;;;17.32;34.09;97117.63;5086175;28;20408;-82
2021/04/28 09:38:57;;;;;;;28.17;14.90;;;17.90;42.10;;;17.27;34.17;97115.06;5082807;28;20483;-81
2021/04/28 09:41:45;;;;;;;24.42;13.07;;;17.90;42.50;;;17.36;34.11;97111.38;5084258;28;20484;-82
2021/04/28 09:44:28;;;;;;;27.30;13.30;;;18.00;42.60;;;17.49;33.62;97111.63;5091556;28;20399;-82
2021/04/28 09:47:06;;;;;;;26.90;13.27;;;18.10;42.10;;;17.61;33.41;97111.88;5093685;28;20397;-80
2021/04/28 09:50:04;;;;;;;29.15;13.75;;;18.20;41.70;;;17.69;32.75;97109.31;5091158;28;20431;-81
2021/04/28 09:52:43;;;;;;;27.38;13.00;;;18.30;41.00;;;17.73;33.08;97104.97;5066495;28;20825;-81
2021/04/28 09:55:13;;;;;;;27.42;14.77;;;18.40;41.40;;;17.74;32.99;97106.50;5065353;28;20417;-80
2021/04/28 09:57:41;;;;;;;28.10;13.37;;;18.30;41.10;;;17.72;32.88;97105.25;5046842;28;20421;-81
2021/04/28 10:00:20;;;;;;;25.38;13.10;;;18.40;40.80;;;17.77;32.27;97107.81;5065730;28;20410;-82
2021/04/28 10:02:59;;;;;;;23.50;13.43;;;18.40;40.30;;;17.84;32.20;97091.31;5067222;28;20413;-81
2021/04/28 10:05:28;;;;;;;29.58;14.05;;;18.40;40.00;;;17.86;31.90;97094.47;5052246;28;20413;-82
2021/04/28 10:08:11;;;;;;;24.95;13.45;;;18.50;39.60;;;18.02;31.41;97093.03;5068811;28;20412;-80
2021/04/28 10:10:45;;;;;;;26.23;13.93;;;18.60;39.60;;;17.99;31.65;97091.72;5068063;28;20504;-79
2021/04/28 10:13:13;;;;;;;31.60;14.38;;;18.60;39.30;;;18.12;31.83;97092.75;5065247;28;20490;-81
2021/04/28 10:15:40;;;;;;;30.40;13.70;;;18.70;39.70;;;18.27;31.60;97087.00;5043803;28;20536;-81
2021/04/28 10:18:22;;;;;;;26.38;13.93;;;18.90;39.50;;;18.20;30.97;97083.97;5061488;28;20552;-82
2021/04/28 10:20:54;;;;;;;25.60;12.50;;;18.90;38.60;;;18.33;30.82;97090.38;5044891;28;20421;-81